createdAt,value
2018-07-31T00:00:47.579Z,62.43
2018-07-31T00:01:47.613Z,63.01
2018-07-31T00:02:47.639Z,63.01
2018-07-31T00:03:47.668Z,63.10
2018-07-31T00:04:47.705Z,63.10
2018-07-31T00:05:47.728Z,63.20
2018-07-31T00:06:47.756Z,62.91
2018-07-31T00:07:47.782Z,63.88
2018-07-31T00:08:47.813Z,63.40
2018-07-31T00:09:47.847Z,63.95
2018-07-31T00:10:47.870Z,63.85
2018-07-31T00:11:47.900Z,64.27
2018-07-31T00:12:47.931Z,64.82
2018-07-31T00:13:47.960Z,64.72
2018-07-31T00:14:47.984Z,65.30
2018-07-31T00:15:48.014Z,65.30
2018-07-31T00:16:48.043Z,65.79
2018-07-31T00:17:48.071Z,66.17
2018-07-31T00:18:48.102Z,66.56
2018-07-31T00:19:48.128Z,66.56
2018-07-31T00:20:48.161Z,65.98
2018-07-31T00:21:48.189Z,66.85
2018-07-31T00:22:48.217Z,67.05
2018-07-31T00:23:48.246Z,67.11
2018-07-31T00:24:48.272Z,67.60
2018-07-31T00:25:48.302Z,67.30
2018-07-31T00:26:48.333Z,67.40
2018-07-31T00:27:48.361Z,67.79
2018-07-31T00:28:48.388Z,67.98
2018-07-31T00:29:48.417Z,68.47
2018-07-31T00:30:48.448Z,68.76
2018-07-31T00:31:48.473Z,69.05
2018-07-31T00:32:48.501Z,69.34
2018-07-31T00:33:48.536Z,69.43
2018-07-31T00:34:48.564Z,69.73
2018-07-31T00:35:48.590Z,70.11
2018-07-31T00:36:48.623Z,70.50
2018-07-31T00:37:48.648Z,70.79
2018-07-31T00:38:48.676Z,71.18
2018-07-31T00:39:48.705Z,71.47
2018-07-31T00:40:48.734Z,71.18
2018-07-31T00:41:48.763Z,71.47
2018-07-31T00:42:48.790Z,72.24
2018-07-31T00:43:48.820Z,72.53
2018-07-31T00:44:48.851Z,72.83
2018-07-31T00:45:48.875Z,72.89
2018-07-31T00:46:48.907Z,72.63
2018-07-31T00:47:48.931Z,73.41
2018-07-31T00:48:48.960Z,73.41
2018-07-31T00:49:48.993Z,73.57
2018-07-31T00:50:49.017Z,73.99
2018-07-31T00:51:49.047Z,74.24
2018-07-31T00:52:49.076Z,75.02
2018-07-31T00:53:49.101Z,75.40
2018-07-31T00:54:49.130Z,75.31
2018-07-31T00:55:49.158Z,75.70
2018-07-31T00:56:49.190Z,75.50
2018-07-31T00:57:49.218Z,76.08
2018-07-31T00:58:49.248Z,76.18
2018-07-31T00:59:49.275Z,76.56
2018-07-31T01:00:49.305Z,76.56
2018-07-31T01:01:49.332Z,76.66
2018-07-31T01:02:49.358Z,76.76
2018-07-31T01:03:49.391Z,76.56
2018-07-31T01:04:49.418Z,77.24
2018-07-31T01:05:49.444Z,77.34
2018-07-31T01:06:49.471Z,77.14
2018-07-31T01:07:49.499Z,77.44
2018-07-31T01:08:49.528Z,78.02
2018-07-31T01:09:49.559Z,78.02
2018-07-31T01:10:49.624Z,77.92
2018-07-31T01:11:49.612Z,78.11
2018-07-31T01:12:49.643Z,78.31
2018-07-31T01:13:49.668Z,78.59
2018-07-31T01:14:49.697Z,78.89
2018-07-31T01:15:49.725Z,78.69
2018-07-31T01:16:49.757Z,78.89
2018-07-31T01:17:49.783Z,79.43
2018-07-31T01:18:49.813Z,79.17
2018-07-31T01:19:49.841Z,79.14
2018-07-31T01:20:49.867Z,80.01
2018-07-31T01:21:49.898Z,79.82
2018-07-31T01:22:49.922Z,80.30
2018-07-31T01:23:49.954Z,80.40
2018-07-31T01:24:49.980Z,80.30
2018-07-31T01:25:50.011Z,80.88
2018-07-31T01:26:50.039Z,80.98
2018-07-31T01:27:50.062Z,81.37
2018-07-31T01:28:50.094Z,81.37
2018-07-31T01:29:50.121Z,81.37
2018-07-31T01:30:50.151Z,81.27
2018-07-31T01:31:50.179Z,81.65
2018-07-31T01:32:50.206Z,81.95
2018-07-31T01:33:50.232Z,82.23
2018-07-31T01:34:50.262Z,82.43
2018-07-31T01:35:50.289Z,83.06
2018-07-31T01:36:50.317Z,83.36
2018-07-31T01:37:50.346Z,83.55
2018-07-31T01:38:50.374Z,83.94
2018-07-31T01:39:50.406Z,83.94
2018-07-31T01:40:50.432Z,85.00
2018-07-31T01:41:50.458Z,85.10
2018-07-31T01:42:50.490Z,85.58
2018-07-31T01:43:50.513Z,85.39
2018-07-31T01:44:50.543Z,85.48
2018-07-31T01:45:50.592Z,85.58
2018-07-31T01:46:50.601Z,85.97
2018-07-31T01:47:50.628Z,86.55
2018-07-31T01:48:50.658Z,86.35
2018-07-31T01:49:50.682Z,86.74
2018-07-31T01:50:50.712Z,87.13
2018-07-31T01:51:50.740Z,87.32
2018-07-31T01:52:50.768Z,87.47
2018-07-31T01:53:50.796Z,87.66
2018-07-31T01:54:50.825Z,88.05
2018-07-31T01:55:50.853Z,87.85
2018-07-31T01:56:50.881Z,88.05
2018-07-31T01:57:50.909Z,88.43
2018-07-31T01:58:50.934Z,88.73
2018-07-31T01:59:50.964Z,89.50
2018-07-31T02:00:50.992Z,89.40
2018-07-31T02:01:51.020Z,89.69
2018-07-31T02:02:51.047Z,90.37
2018-07-31T02:03:51.074Z,90.95
2018-07-31T02:04:51.102Z,91.05
2018-07-31T02:05:51.130Z,91.24
2018-07-31T02:06:51.161Z,91.33
2018-07-31T02:07:51.191Z,91.82
2018-07-31T02:08:51.213Z,91.91
2018-07-31T02:09:51.241Z,91.67
2018-07-31T02:10:51.268Z,92.07
2018-07-31T02:11:51.298Z,92.49
2018-07-31T02:12:51.325Z,92.59
2018-07-31T02:13:51.354Z,92.88
2018-07-31T02:14:51.380Z,93.41
2018-07-31T02:15:51.408Z,93.23
2018-07-31T02:16:51.438Z,93.71
2018-07-31T02:17:51.463Z,94.38
2018-07-31T02:18:51.494Z,94.57
2018-07-31T02:19:51.521Z,94.96
2018-07-31T02:20:51.549Z,94.77
2018-07-31T02:21:51.576Z,95.25
2018-07-31T02:22:51.605Z,95.45
2018-07-31T02:23:51.631Z,96.41
2018-07-31T02:24:51.660Z,96.61
2018-07-31T02:25:51.687Z,96.99
2018-07-31T02:26:51.716Z,97.38
2018-07-31T02:27:51.745Z,97.19
2018-07-31T02:28:51.770Z,96.99
2018-07-31T02:29:51.800Z,97.19
2018-07-31T02:30:51.825Z,96.99
2018-07-31T02:31:51.856Z,97.47
2018-07-31T02:32:51.890Z,97.67
2018-07-31T02:33:51.921Z,98.54
2018-07-31T02:34:51.953Z,99.41
2018-07-31T02:35:51.984Z,99.99
2018-07-31T02:36:52.017Z,99.99
2018-07-31T02:37:52.047Z,99.99
2018-07-31T02:38:52.079Z,99.99
2018-07-31T02:39:52.111Z,99.99
2018-07-31T02:40:52.143Z,99.99
2018-07-31T02:41:52.179Z,99.99
2018-07-31T02:42:52.209Z,99.99
2018-07-31T02:43:52.240Z,99.99
2018-07-31T02:44:52.272Z,99.99
2018-07-31T02:45:52.308Z,99.99
2018-07-31T02:46:52.397Z,99.99
2018-07-31T02:47:52.370Z,99.99
2018-07-31T02:48:52.405Z,99.99
2018-07-31T02:49:52.438Z,99.99
2018-07-31T02:50:52.470Z,99.99
2018-07-31T02:51:52.501Z,99.99
2018-07-31T02:52:52.538Z,99.99
2018-07-31T02:53:52.568Z,99.99
2018-07-31T02:54:52.597Z,99.99
2018-07-31T02:55:52.629Z,99.99
2018-07-31T02:56:52.665Z,99.99
2018-07-31T02:57:52.697Z,99.99
2018-07-31T02:58:52.731Z,99.99
2018-07-31T02:59:52.761Z,99.99
2018-07-31T03:00:52.792Z,99.99
2018-07-31T03:01:52.827Z,99.99
2018-07-31T03:02:52.859Z,99.99
2018-07-31T03:03:52.888Z,99.99
2018-07-31T03:04:52.925Z,99.99
2018-07-31T03:05:52.957Z,99.99
2018-07-31T03:06:52.987Z,99.99
2018-07-31T03:07:53.019Z,99.99
2018-07-31T03:08:53.051Z,99.99
2018-07-31T03:09:53.086Z,99.99
2018-07-31T03:10:53.119Z,99.99
2018-07-31T03:11:53.152Z,99.99
2018-07-31T03:12:53.182Z,99.99
2018-07-31T03:13:53.216Z,99.99
2018-07-31T03:14:53.249Z,99.99
2018-07-31T03:15:53.281Z,99.99
2018-07-31T03:16:53.310Z,99.99
2018-07-31T03:17:53.344Z,99.99
2018-07-31T03:18:53.382Z,99.99
2018-07-31T03:19:53.410Z,99.99
2018-07-31T03:20:53.439Z,99.99
2018-07-31T03:21:53.472Z,99.99
2018-07-31T03:22:53.505Z,99.99
2018-07-31T03:23:53.538Z,99.99
2018-07-31T03:24:53.569Z,99.99
2018-07-31T03:25:53.601Z,99.99
2018-07-31T03:26:53.637Z,99.99
2018-07-31T03:27:53.668Z,99.99
2018-07-31T03:28:53.700Z,99.99
2018-07-31T03:29:53.736Z,99.99
2018-07-31T03:30:53.766Z,99.99
2018-07-31T03:31:53.795Z,99.99
2018-07-31T03:32:53.829Z,99.99
2018-07-31T03:33:53.859Z,99.99
2018-07-31T03:34:53.893Z,99.99
2018-07-31T03:35:53.924Z,99.99
2018-07-31T03:36:53.962Z,99.99
2018-07-31T03:37:53.992Z,99.99
2018-07-31T03:38:54.022Z,99.99
2018-07-31T03:39:54.053Z,99.99
2018-07-31T03:40:54.087Z,99.99
2018-07-31T03:41:54.118Z,99.99
2018-07-31T03:42:54.154Z,99.99
2018-07-31T03:43:54.181Z,99.99
2018-07-31T03:44:54.216Z,99.99
2018-07-31T03:45:54.248Z,99.99
2018-07-31T03:46:54.282Z,99.99
2018-07-31T03:47:54.310Z,99.99
2018-07-31T03:48:54.344Z,99.99
2018-07-31T03:49:54.383Z,99.99
2018-07-31T03:50:54.411Z,99.99
2018-07-31T03:51:54.438Z,99.99
2018-07-31T03:52:54.474Z,99.99
2018-07-31T03:53:54.503Z,99.99
2018-07-31T03:54:54.536Z,99.99
2018-07-31T03:55:54.573Z,99.99
2018-07-31T03:56:54.601Z,99.99
2018-07-31T03:57:54.632Z,99.99
2018-07-31T03:58:54.664Z,99.99
2018-07-31T03:59:54.696Z,99.99
2018-07-31T04:00:54.728Z,99.99
2018-07-31T04:01:54.761Z,99.99
2018-07-31T04:02:54.795Z,99.99
2018-07-31T04:03:54.828Z,99.99
2018-07-31T04:04:54.860Z,99.99
2018-07-31T04:05:54.893Z,99.99
2018-07-31T04:06:54.924Z,99.99
2018-07-31T04:07:54.953Z,99.99
2018-07-31T04:08:54.988Z,99.99
2018-07-31T04:09:55.022Z,99.99
2018-07-31T04:10:55.054Z,99.99
2018-07-31T04:11:55.089Z,99.99
2018-07-31T04:12:55.114Z,99.99
2018-07-31T04:13:55.149Z,99.99
2018-07-31T04:14:55.183Z,99.99
2018-07-31T04:15:55.213Z,99.99
2018-07-31T04:16:55.264Z,99.99
2018-07-31T04:17:55.281Z,99.99
2018-07-31T04:18:55.311Z,99.99
2018-07-31T04:19:55.342Z,99.99
2018-07-31T04:20:55.375Z,99.99
2018-07-31T04:21:55.405Z,99.99
2018-07-31T04:22:55.439Z,99.99
2018-07-31T04:23:55.470Z,99.99
2018-07-31T04:24:55.500Z,99.99
2018-07-31T04:25:55.533Z,99.99
2018-07-31T04:26:55.568Z,99.99
2018-07-31T04:27:55.600Z,99.99
2018-07-31T04:28:55.629Z,99.99
2018-07-31T04:29:55.665Z,99.99
2018-07-31T04:30:55.695Z,99.99
2018-07-31T04:31:55.727Z,99.99
2018-07-31T04:32:55.766Z,99.99
2018-07-31T04:33:55.794Z,99.99
2018-07-31T04:34:55.824Z,99.99
2018-07-31T04:35:55.897Z,99.99
2018-07-31T04:36:55.891Z,99.99
2018-07-31T04:37:55.920Z,99.99
2018-07-31T04:38:55.955Z,99.99
2018-07-31T04:39:55.988Z,99.99
2018-07-31T04:40:56.024Z,99.99
2018-07-31T04:41:56.053Z,99.99
2018-07-31T04:42:56.086Z,99.99
2018-07-31T04:43:56.113Z,99.99
2018-07-31T04:44:56.147Z,99.99
2018-07-31T04:45:56.181Z,99.99
2018-07-31T04:46:56.213Z,99.99
2018-07-31T04:47:56.244Z,99.99
2018-07-31T04:48:56.279Z,99.99
2018-07-31T04:49:56.311Z,99.99
2018-07-31T04:50:56.341Z,99.99
2018-07-31T04:51:56.376Z,99.99
2018-07-31T04:52:56.404Z,99.99
2018-07-31T04:53:56.437Z,99.99
2018-07-31T04:54:56.476Z,99.99
2018-07-31T04:55:56.504Z,99.99
2018-07-31T04:56:56.535Z,99.99
2018-07-31T04:57:56.567Z,99.99
2018-07-31T04:58:56.602Z,99.99
2018-07-31T04:59:56.634Z,99.99
2018-07-31T05:00:56.666Z,99.99
2018-07-31T05:01:56.698Z,99.99
2018-07-31T05:02:56.731Z,99.99
2018-07-31T05:03:56.763Z,99.99
2018-07-31T05:04:56.796Z,99.99
2018-07-31T05:05:56.828Z,99.99
2018-07-31T05:06:56.858Z,99.99
2018-07-31T05:07:56.892Z,99.99
2018-07-31T05:08:56.923Z,99.99
2018-07-31T05:09:56.958Z,99.99
2018-07-31T05:10:57.000Z,99.99
2018-07-31T05:11:57.223Z,99.99
2018-07-31T05:12:57.063Z,99.99
2018-07-31T05:13:57.090Z,99.99
2018-07-31T05:14:57.119Z,99.99
2018-07-31T05:15:57.152Z,99.99
2018-07-31T05:16:57.181Z,99.99
2018-07-31T05:17:57.215Z,99.99
2018-07-31T05:18:57.246Z,99.99
2018-07-31T05:19:57.278Z,99.99
2018-07-31T05:20:57.314Z,99.99
2018-07-31T05:21:57.347Z,99.99
2018-07-31T05:22:57.381Z,99.99
2018-07-31T05:23:57.414Z,99.99
2018-07-31T05:24:57.446Z,99.99
2018-07-31T05:25:57.479Z,99.99
2018-07-31T05:26:57.512Z,99.99
2018-07-31T05:27:57.742Z,99.99
2018-07-31T05:28:57.576Z,99.99
2018-07-31T05:29:57.607Z,99.99
2018-07-31T05:30:57.640Z,99.99
2018-07-31T05:31:57.677Z,99.99
2018-07-31T05:32:57.706Z,99.99
2018-07-31T05:33:57.741Z,99.16
2018-07-31T05:34:57.776Z,97.67
2018-07-31T05:35:57.808Z,96.60
2018-07-31T05:36:57.838Z,95.73
2018-07-31T05:37:57.872Z,94.91
2018-07-31T05:38:57.908Z,94.23
2018-07-31T05:39:57.940Z,93.65
2018-07-31T05:40:57.971Z,93.65
2018-07-31T05:41:58.006Z,93.17
2018-07-31T05:42:58.039Z,92.93
2018-07-31T05:43:58.072Z,92.24
2018-07-31T05:44:58.107Z,91.47
2018-07-31T05:45:58.143Z,90.99
2018-07-31T05:46:58.176Z,90.21
2018-07-31T05:47:58.208Z,90.21
2018-07-31T05:48:58.239Z,90.02
2018-07-31T05:49:58.273Z,89.53
2018-07-31T05:50:58.307Z,89.09
2018-07-31T05:51:58.382Z,88.32
2018-07-31T05:52:58.377Z,88.13
2018-07-31T05:53:58.412Z,87.35
2018-07-31T05:54:58.445Z,86.33
2018-07-31T05:55:58.478Z,86.82
2018-07-31T05:56:58.513Z,86.68
2018-07-31T05:57:58.550Z,87.26
2018-07-31T05:58:58.585Z,87.16
2018-07-31T05:59:58.619Z,86.68
2018-07-31T06:00:58.654Z,86.68
2018-07-31T06:01:58.692Z,86.43
2018-07-31T06:02:58.723Z,86.23
2018-07-31T06:03:58.757Z,85.94
2018-07-31T06:04:58.790Z,85.94
2018-07-31T06:05:58.828Z,85.02
2018-07-31T06:06:58.862Z,84.24
2018-07-31T06:07:58.893Z,84.24
2018-07-31T06:08:58.928Z,83.75
2018-07-31T06:09:58.967Z,83.56
2018-07-31T06:10:58.999Z,83.07
2018-07-31T06:11:59.039Z,83.27
2018-07-31T06:12:59.068Z,82.92
2018-07-31T06:13:59.104Z,81.95
2018-07-31T06:14:59.142Z,82.24
2018-07-31T06:15:59.176Z,81.95
2018-07-31T06:16:59.209Z,81.95
2018-07-31T06:17:59.247Z,81.47
2018-07-31T06:18:59.283Z,81.47
2018-07-31T06:19:59.316Z,81.27
2018-07-31T06:20:59.355Z,80.98
2018-07-31T06:21:59.387Z,80.63
2018-07-31T06:22:59.423Z,80.69
2018-07-31T06:23:59.458Z,79.76
2018-07-31T06:24:59.496Z,79.41
2018-07-31T06:25:59.530Z,79.18
2018-07-31T06:26:59.592Z,79.96
2018-07-31T06:27:59.607Z,79.71
2018-07-31T06:28:59.640Z,78.83
2018-07-31T06:29:59.674Z,79.12
2018-07-31T06:30:59.710Z,78.44
2018-07-31T06:31:59.748Z,78.58
2018-07-31T06:32:59.886Z,77.70
2018-07-31T06:33:59.818Z,76.97
2018-07-31T06:34:59.858Z,76.09
2018-07-31T06:35:59.893Z,75.99
2018-07-31T06:36:59.930Z,75.70
2018-07-31T06:37:59.964Z,75.21
2018-07-31T06:39:00.004Z,75.31
2018-07-31T06:40:00.040Z,75.41
2018-07-31T06:41:00.075Z,74.92
2018-07-31T06:42:00.114Z,74.92
2018-07-31T06:43:00.148Z,75.60
2018-07-31T06:44:00.184Z,74.73
2018-07-31T06:45:00.225Z,74.96
2018-07-31T06:46:00.260Z,74.44
2018-07-31T06:47:00.298Z,74.76
2018-07-31T06:48:00.336Z,73.34
2018-07-31T06:49:00.373Z,72.37
2018-07-31T06:50:00.409Z,71.92
2018-07-31T06:51:00.448Z,71.33
2018-07-31T06:52:00.481Z,72.08
2018-07-31T06:53:00.522Z,71.62
2018-07-31T06:54:00.557Z,71.53
2018-07-31T06:55:00.594Z,71.04
2018-07-31T06:56:00.633Z,70.30
2018-07-31T06:57:00.674Z,69.62
2018-07-31T06:58:00.708Z,69.65
2018-07-31T06:59:00.748Z,69.81
2018-07-31T07:00:00.784Z,69.32
2018-07-31T07:01:00.821Z,68.64
2018-07-31T07:02:00.892Z,68.19
2018-07-31T07:03:00.901Z,67.25
2018-07-31T07:04:00.937Z,67.41
2018-07-31T07:05:00.975Z,67.86
2018-07-31T07:06:01.013Z,68.64
2018-07-31T07:07:01.053Z,68.80
2018-07-31T07:08:01.094Z,68.84
2018-07-31T07:09:01.127Z,67.90
2018-07-31T07:10:01.167Z,67.50
2018-07-31T07:11:01.206Z,67.50
2018-07-31T07:12:01.243Z,67.60
2018-07-31T07:13:01.281Z,66.76
2018-07-31T07:14:01.321Z,66.56
2018-07-31T07:15:01.362Z,66.73
2018-07-31T07:16:01.398Z,66.73
2018-07-31T07:17:01.434Z,66.27
2018-07-31T07:18:04.505Z,66.66
2018-07-31T07:19:01.509Z,66.08
2018-07-31T07:20:01.544Z,64.75
2018-07-31T07:22:19.230Z,62.50
2018-07-31T07:23:19.268Z,62.01
2018-07-31T07:24:19.307Z,61.82
2018-07-31T07:25:19.347Z,62.47
2018-07-31T07:27:11.970Z,64.00
2018-07-31T07:28:12.009Z,65.20
2018-07-31T07:29:12.049Z,67.57
2018-07-31T07:30:12.299Z,68.32
2018-07-31T07:31:12.443Z,68.74
2018-07-31T07:32:12.176Z,69.42
2018-07-31T07:33:12.213Z,69.32
2018-07-31T07:34:12.461Z,67.96
2018-07-31T07:35:12.282Z,68.26
2018-07-31T07:36:12.335Z,67.41
2018-07-31T07:37:12.372Z,67.70
2018-07-31T07:38:12.418Z,67.77
2018-07-31T07:39:12.962Z,67.96
2018-07-31T07:40:12.481Z,67.70
2018-07-31T07:41:12.721Z,66.47
2018-07-31T07:42:12.963Z,65.69
2018-07-31T07:43:12.594Z,64.65
2018-07-31T07:44:12.632Z,63.60
2018-07-31T07:45:12.664Z,63.48
2018-07-31T07:46:12.698Z,61.82
2018-07-31T07:47:12.738Z,60.70
2018-07-31T07:48:12.764Z,58.90
2018-07-31T07:49:12.801Z,57.46
2018-07-31T07:50:12.833Z,56.48
2018-07-31T07:51:12.868Z,57.87
2018-07-31T07:52:12.903Z,58.87
2018-07-31T07:53:12.938Z,57.92
2018-07-31T07:54:13.151Z,57.04
2018-07-31T07:55:13.002Z,57.60
2018-07-31T07:56:13.042Z,58.38
2018-07-31T07:57:13.073Z,57.40
2018-07-31T07:58:13.104Z,58.48
2018-07-31T07:59:13.148Z,58.94
2018-07-31T08:00:13.179Z,58.16
2018-07-31T08:01:13.210Z,58.94
2018-07-31T08:02:13.245Z,58.48
2018-07-31T08:03:13.276Z,58.45
2018-07-31T08:04:13.434Z,58.94
2018-07-31T08:05:13.347Z,59.04
2018-07-31T08:06:13.381Z,59.40
2018-07-31T08:07:13.450Z,59.50
2018-07-31T08:08:13.447Z,59.01
2018-07-31T08:09:13.591Z,59.23
2018-07-31T08:10:13.519Z,60.08
2018-07-31T08:11:13.552Z,60.25
2018-07-31T08:12:13.584Z,60.86
2018-07-31T08:13:13.673Z,60.18
2018-07-31T08:14:13.655Z,59.92
2018-07-31T08:15:13.686Z,58.78
2018-07-31T08:16:13.720Z,57.53
2018-07-31T08:17:13.855Z,56.19
2018-07-31T08:18:13.792Z,55.82
2018-07-31T08:19:13.822Z,55.36
2018-07-31T08:20:13.862Z,54.58
2018-07-31T08:21:13.914Z,55.53
2018-07-31T08:22:13.929Z,56.56
2018-07-31T08:23:13.959Z,57.70
2018-07-31T08:24:13.996Z,58.65
2018-07-31T08:25:14.045Z,57.70
2018-07-31T08:26:14.064Z,57.73
2018-07-31T08:27:14.097Z,55.90
2018-07-31T08:28:14.133Z,56.06
2018-07-31T08:29:14.167Z,57.04
2018-07-31T08:30:14.201Z,56.02
2018-07-31T08:31:14.235Z,54.38
2018-07-31T08:32:14.273Z,54.91
2018-07-31T08:33:14.308Z,55.96
2018-07-31T08:34:14.339Z,57.11
2018-07-31T08:35:14.376Z,57.34
2018-07-31T08:36:14.411Z,55.14
2018-07-31T08:37:14.446Z,52.96
2018-07-31T08:38:14.480Z,51.25
2018-07-31T08:39:14.514Z,50.29
2018-07-31T08:40:14.546Z,49.60
2018-07-31T08:41:14.634Z,48.65
2018-07-31T08:42:14.617Z,48.77
2018-07-31T08:43:14.654Z,48.47
2018-07-31T08:44:14.688Z,47.98
2018-07-31T08:45:14.722Z,48.27
2018-07-31T08:46:14.762Z,47.41
2018-07-31T08:48:17.481Z,50.14
2018-07-31T08:49:14.872Z,51.39
2018-07-31T08:52:15.492Z,53.40
2018-07-31T08:54:15.469Z,50.63
2018-07-31T08:55:15.106Z,50.83
2018-07-31T08:56:15.155Z,50.34
2018-07-31T09:03:15.432Z,48.35
2018-07-31T09:04:18.909Z,47.12
2018-07-31T09:05:15.514Z,46.45
2018-07-31T09:06:15.554Z,45.56
2018-07-31T09:07:15.593Z,45.39
2018-07-31T09:08:15.700Z,44.27
2018-07-31T09:09:15.677Z,44.82
2018-07-31T09:10:15.711Z,45.67
2018-07-31T09:11:15.748Z,45.07
2018-07-31T09:12:15.786Z,46.70
2018-07-31T09:13:15.821Z,47.39
2018-07-31T09:14:15.862Z,46.03
2018-07-31T09:15:15.894Z,46.82
2018-07-31T09:16:15.933Z,46.70
2018-07-31T09:17:15.972Z,47.81
2018-07-31T09:18:16.006Z,49.73
2018-07-31T09:19:16.043Z,51.34
2018-07-31T09:20:16.080Z,53.16
2018-07-31T09:21:16.118Z,53.84
2018-07-31T09:22:16.209Z,52.40
2018-07-31T09:23:16.195Z,52.20
2018-07-31T09:24:16.230Z,51.81
2018-07-31T09:25:16.264Z,52.20
2018-07-31T09:26:16.300Z,51.81
2018-07-31T09:27:16.339Z,52.50
2018-07-31T09:28:16.377Z,52.56
2018-07-31T09:29:16.410Z,52.27
2018-07-31T09:30:16.452Z,52.40
2018-07-31T09:31:16.482Z,51.81
2018-07-31T09:32:16.517Z,50.68
2018-07-31T09:33:16.557Z,49.85
2018-07-31T09:34:16.799Z,48.79
2018-07-31T09:35:16.626Z,47.86
2018-07-31T09:36:16.665Z,46.80
2018-07-31T09:37:16.697Z,46.75
2018-07-31T09:38:16.987Z,48.79
2018-07-31T09:39:16.770Z,48.85
2018-07-31T09:40:16.804Z,49.70
2018-07-31T09:41:16.841Z,50.54
2018-07-31T09:42:16.876Z,51.61
2018-07-31T09:43:16.912Z,51.32
2018-07-31T09:44:16.949Z,50.85
2018-07-31T09:45:16.991Z,51.05
2018-07-31T09:46:17.021Z,49.99
2018-07-31T09:47:17.056Z,48.16
2018-07-31T09:48:17.090Z,47.17
2018-07-31T09:49:17.126Z,47.47
2018-07-31T09:50:17.162Z,47.39
2018-07-31T09:51:17.194Z,48.03
2018-07-31T09:52:17.232Z,48.48
2018-07-31T09:53:17.265Z,49.63
2018-07-31T09:54:17.301Z,49.53
2018-07-31T09:55:17.335Z,49.92
2018-07-31T09:56:17.374Z,50.02
2018-07-31T09:57:17.489Z,50.42
2018-07-31T09:58:17.445Z,49.99
2018-07-31T09:59:17.529Z,50.98
2018-07-31T10:00:17.514Z,50.68
2018-07-31T10:01:17.555Z,50.24
2018-07-31T10:02:17.586Z,47.13
2018-07-31T10:03:17.618Z,47.16
2018-07-31T10:04:17.655Z,46.00
2018-07-31T10:05:17.769Z,46.66
2018-07-31T10:06:17.724Z,45.24
2018-07-31T10:07:17.757Z,44.34
2018-07-31T10:08:17.835Z,41.83
2018-07-31T10:09:17.827Z,41.27
2018-07-31T10:10:17.872Z,40.70
2018-07-31T10:11:17.899Z,38.85
2018-07-31T10:12:17.932Z,40.45
2018-07-31T10:13:17.972Z,41.69
2018-07-31T10:14:18.004Z,41.71
2018-07-31T10:15:18.039Z,43.04
2018-07-31T10:16:18.079Z,43.14
2018-07-31T10:17:18.109Z,42.10
2018-07-31T10:18:18.283Z,43.16
2018-07-31T10:19:18.183Z,44.52
2018-07-31T10:20:18.218Z,43.47
2018-07-31T10:21:18.254Z,45.39
2018-07-31T10:22:18.291Z,45.29
2018-07-31T10:23:18.326Z,45.49
2018-07-31T10:24:18.362Z,45.98
2018-07-31T10:25:18.398Z,46.15
2018-07-31T10:26:18.438Z,46.05
2018-07-31T10:27:18.466Z,46.54
2018-07-31T10:28:18.510Z,46.64
2018-07-31T10:29:18.551Z,44.82
2018-07-31T10:30:18.779Z,44.84
2018-07-31T10:31:18.609Z,44.55
2018-07-31T10:32:18.644Z,45.02
2018-07-31T10:33:18.686Z,43.90
2018-07-31T10:34:18.715Z,41.98
2018-07-31T10:35:18.753Z,40.05
2018-07-31T10:36:18.789Z,40.03
2018-07-31T10:37:18.822Z,41.19
2018-07-31T10:38:18.858Z,41.72
2018-07-31T10:39:18.891Z,43.10
2018-07-31T10:40:18.927Z,43.51
2018-07-31T10:41:18.964Z,42.35
2018-07-31T10:42:18.999Z,42.16
2018-07-31T10:43:19.034Z,42.35
2018-07-31T10:44:19.073Z,42.53
2018-07-31T10:45:19.108Z,41.61
2018-07-31T10:46:19.144Z,41.77
2018-07-31T10:47:19.176Z,42.25
2018-07-31T10:48:19.212Z,44.35
2018-07-31T10:49:19.250Z,45.76
2018-07-31T10:50:19.286Z,45.93
2018-07-31T10:51:19.322Z,46.81
2018-07-31T10:52:19.358Z,47.47
2018-07-31T10:53:19.392Z,48.16
2018-07-31T10:54:19.429Z,47.57
2018-07-31T10:55:19.461Z,48.26
2018-07-31T10:56:19.498Z,48.92
2018-07-31T10:57:19.535Z,48.82
2018-07-31T10:58:19.594Z,48.75
2018-07-31T10:59:19.629Z,47.52
2018-07-31T11:00:19.703Z,46.54
2018-07-31T11:01:19.675Z,46.62
2018-07-31T11:02:19.709Z,46.56
2018-07-31T11:03:19.745Z,44.94
2018-07-31T11:04:19.882Z,43.79
2018-07-31T11:05:19.814Z,44.26
2018-07-31T11:06:19.923Z,44.60
2018-07-31T11:07:19.884Z,45.88
2018-07-31T11:08:19.916Z,45.59
2018-07-31T11:09:19.952Z,45.51
2018-07-31T11:10:20.045Z,45.21
2018-07-31T11:11:20.020Z,45.12
2018-07-31T11:12:20.058Z,45.98
2018-07-31T11:13:20.138Z,45.56
2018-07-31T11:14:20.129Z,45.95
2018-07-31T11:15:20.160Z,46.64
2018-07-31T11:16:20.194Z,46.47
2018-07-31T11:17:20.232Z,46.13
2018-07-31T11:18:20.264Z,47.11
2018-07-31T11:19:20.298Z,46.27
2018-07-31T11:20:20.335Z,44.32
2018-07-31T11:21:20.452Z,42.38
2018-07-31T11:22:20.403Z,42.40
2018-07-31T11:23:20.439Z,42.43
2018-07-31T11:24:20.475Z,44.84
2018-07-31T11:25:20.510Z,44.96
2018-07-31T11:26:20.545Z,43.55
2018-07-31T11:27:20.635Z,42.59
2018-07-31T11:28:20.615Z,43.16
2018-07-31T11:29:20.651Z,42.77
2018-07-31T11:30:20.685Z,43.18
2018-07-31T11:31:20.720Z,41.53
2018-07-31T11:32:20.754Z,41.17
2018-07-31T11:33:20.791Z,40.88
2018-07-31T11:34:20.825Z,39.84
2018-07-31T11:35:20.861Z,39.06
2018-07-31T11:36:20.894Z,37.96
2018-07-31T11:37:20.930Z,36.65
2018-07-31T11:38:21.003Z,37.46
2018-07-31T11:39:21.000Z,35.83
2018-07-31T11:40:21.039Z,35.60
2018-07-31T11:41:21.076Z,35.47
2018-07-31T11:42:21.109Z,36.61
2018-07-31T11:43:21.143Z,36.75
2018-07-31T11:44:21.180Z,36.34
2018-07-31T11:45:21.220Z,35.17
2018-07-31T11:46:21.256Z,34.05
2018-07-31T11:47:21.290Z,35.20
2018-07-31T11:48:21.328Z,35.41
2018-07-31T11:49:21.366Z,34.94
2018-07-31T11:50:21.401Z,36.46
2018-07-31T11:51:21.439Z,36.94
2018-07-31T11:52:21.476Z,36.29
2018-07-31T11:53:21.517Z,35.69
2018-07-31T11:54:21.549Z,35.60
2018-07-31T11:55:21.584Z,35.00
2018-07-31T11:56:21.621Z,35.12
2018-07-31T11:57:21.661Z,34.76
2018-07-31T11:58:21.695Z,34.18
2018-07-31T11:59:21.735Z,33.39
2018-07-31T12:00:21.769Z,34.43
2018-07-31T12:01:21.809Z,34.87
2018-07-31T12:02:21.844Z,34.87
2018-07-31T12:03:21.880Z,35.07
2018-07-31T12:04:21.978Z,34.59
2018-07-31T12:05:21.956Z,35.07
2018-07-31T12:06:21.997Z,34.89
2018-07-31T12:07:22.033Z,34.63
2018-07-31T12:08:22.069Z,34.31
2018-07-31T12:09:22.106Z,34.31
2018-07-31T12:10:22.140Z,34.97
2018-07-31T12:11:22.177Z,35.10
2018-07-31T12:12:22.214Z,33.58
2018-07-31T12:13:22.255Z,33.25
2018-07-31T12:14:22.293Z,34.03
2018-07-31T12:15:22.328Z,34.23
2018-07-31T12:16:22.363Z,33.82
2018-07-31T12:17:22.406Z,35.54
2018-07-31T12:18:22.437Z,36.43
2018-07-31T12:19:22.473Z,36.13
2018-07-31T12:20:22.510Z,35.18
2018-07-31T12:21:22.547Z,34.43
2018-07-31T12:22:22.586Z,34.33
2018-07-31T12:23:22.624Z,34.15
2018-07-31T12:24:22.663Z,34.66
2018-07-31T12:25:22.698Z,37.34
2018-07-31T12:26:22.732Z,39.27
2018-07-31T12:27:22.768Z,40.03
2018-07-31T12:28:22.806Z,40.51
2018-07-31T12:29:22.842Z,40.31
2018-07-31T12:30:22.882Z,41.37
2018-07-31T12:31:22.917Z,41.76
2018-07-31T12:32:22.952Z,40.09
2018-07-31T12:33:22.987Z,39.21
2018-07-31T12:34:23.023Z,38.09
2018-07-31T12:35:23.061Z,37.87
2018-07-31T12:36:23.097Z,38.84
2018-07-31T12:37:23.137Z,37.51
2018-07-31T12:38:23.206Z,37.46
2018-07-31T12:39:23.203Z,39.98
2018-07-31T12:40:23.240Z,40.06
2018-07-31T12:41:23.274Z,41.29
2018-07-31T12:42:23.312Z,41.58
2018-07-31T12:43:23.349Z,42.08
2018-07-31T12:44:23.382Z,41.31
2018-07-31T12:45:23.416Z,40.74
2018-07-31T12:46:23.452Z,41.31
2018-07-31T12:47:23.486Z,41.51
2018-07-31T12:48:23.531Z,41.03
2018-07-31T12:49:23.559Z,41.31
2018-07-31T12:50:23.594Z,42.18
2018-07-31T12:51:23.627Z,42.19
2018-07-31T12:52:23.663Z,40.69
2018-07-31T12:53:23.697Z,38.78
2018-07-31T12:54:23.733Z,37.81
2018-07-31T12:55:23.775Z,38.18
2018-07-31T12:56:23.803Z,39.44
2018-07-31T12:57:23.840Z,38.85
2018-07-31T12:58:23.875Z,39.52
2018-07-31T12:59:23.905Z,40.17
2018-07-31T13:00:23.944Z,39.68
2018-07-31T13:01:23.978Z,39.50
2018-07-31T13:02:24.016Z,39.70
2018-07-31T13:03:24.046Z,39.03
2018-07-31T13:04:24.083Z,38.85
2018-07-31T13:05:24.115Z,37.59